Pagrindinis puslapis
METAR-TAF:

METAR-TAF

Oro uostai :

Kalėdų sala, Australija

platuma: 10-26S, ilguma: 105-41E, Aukštis: 279 m

Dabartinis oras

Ataskaita buvo paskelbta 4 minutes, ne 22:56 UTC
Ramus vėjas
Temperatūra 23°C
Drėgmė 100%
Slėgis 1012 hPa
Matomumas 10 km arba daugiau
Su prošvaistėmis ne aukštis 1000 ft
Su prošvaistėmis ne aukštis 3900 ft
Apsiniaukę ne aukštis 4800 ft
lietus

METAR: YPXM 122256Z AUTO 00000KT 9999 -SHRA BKN010 BKN039 OVC048 23/23 Q1012

Laikas: 06:00 (23:00 UTC)

Prognozė

Ataskaita buvo paskelbta 7 minutes, ne 22:53 UTC
Prognozė galioja nuo 12 metu 22 UTC su 14 metu 00 UTC
Vėjas 8 kt iš Pietų/Pietryčių
Matomumas: 3000 m
Su prošvaistėmis ne aukštis 1000 ft
Su prošvaistėmis ne aukštis 500 ft
lietus, lietus

TAF: YPXM 122253Z 1222/1400 15008KT 9999 -SHRA BKN010 INTER 1222/1400 3000 SHRA BKN005

Orai ataskaitas ir orų prognozės (METAR, TAF).

turimą stotys yra geltonos ir raudonos taškus žemėlapyje.

Perkelti pele per norėdami pamatyti stoties vardą.

Tada spustelėkite, norėdami matyti oro stebėjimo ir prognozės.

Norėdami pakeisti žemėlapį: spustelėkite ant žalios mygtukų su juodo kryžiaus žemyn,; žalią mygtuką su brūkšneliu, jei norite nutolinti; arba žalių rodyklių gretimoms žemėlapius.


METAR-TAF: